createdAt,value
2022-08-11T00:01:53.195Z,57.55
2022-08-11T00:04:23.729Z,57.64
2022-08-11T00:06:51.944Z,57.87
2022-08-11T00:09:21.408Z,57.81
2022-08-11T00:11:53.947Z,57.65
2022-08-11T00:14:36.040Z,57.55
2022-08-11T00:17:13.508Z,57.82
2022-08-11T00:20:14.997Z,58.65
2022-08-11T00:22:39.759Z,59.38
2022-08-11T00:25:12.800Z,59.02
2022-08-11T00:27:41.140Z,59.77
2022-08-11T00:30:10.161Z,60.20
2022-08-11T00:32:46.224Z,60.00
2022-08-11T00:35:53.703Z,61.01
2022-08-11T00:38:05.559Z,61.07
2022-08-11T00:40:45.074Z,60.98
2022-08-11T00:43:57.746Z,60.73
2022-08-11T00:46:27.126Z,61.92
2022-08-11T00:49:04.848Z,62.34
2022-08-11T00:52:04.270Z,62.08
2022-08-11T00:55:00.552Z,62.01
2022-08-11T00:57:58.421Z,62.24
2022-08-11T01:00:32.306Z,63.22
2022-08-11T01:03:19.624Z,63.45
2022-08-11T01:05:57.701Z,64.55
2022-08-11T01:08:59.034Z,64.33
2022-08-11T01:12:01.684Z,64.63
2022-08-11T01:15:16.451Z,65.29
2022-08-11T01:18:18.815Z,65.78
2022-08-11T01:21:10.265Z,65.56
2022-08-11T01:24:05.250Z,65.53
2022-08-11T01:26:43.854Z,66.19
2022-08-11T01:29:32.363Z,66.79
2022-08-11T01:32:21.678Z,66.47
2022-08-11T01:35:23.993Z,65.92
2022-08-11T01:38:12.195Z,66.01
2022-08-11T01:41:22.827Z,65.63
2022-08-11T01:44:37.315Z,65.68
2022-08-11T01:47:52.591Z,66.18
2022-08-11T01:50:46.461Z,66.14
2022-08-11T01:53:25.175Z,66.41
2022-08-11T01:56:30.650Z,66.78
2022-08-11T01:59:14.178Z,67.28
2022-08-11T02:01:40.817Z,67.21
2022-08-11T02:04:29.980Z,66.45
2022-08-11T02:07:15.370Z,66.78
2022-08-11T02:10:35.314Z,66.60
2022-08-11T02:13:15.917Z,66.99
2022-08-11T02:15:55.926Z,67.72
2022-08-11T02:19:05.394Z,67.31
2022-08-11T02:22:02.443Z,67.36
2022-08-11T02:24:44.099Z,68.06
2022-08-11T02:27:23.323Z,67.97
2022-08-11T02:30:05.223Z,68.19
2022-08-11T02:33:06.249Z,67.96
2022-08-11T02:35:42.588Z,68.45
2022-08-11T02:38:28.059Z,68.18
2022-08-11T02:41:40.009Z,68.78
2022-08-11T02:44:28.433Z,69.21
2022-08-11T02:47:23.948Z,68.58
2022-08-11T02:50:07.191Z,69.41
2022-08-11T02:52:46.332Z,70.04
2022-08-11T02:55:55.780Z,69.75
2022-08-11T02:58:38.624Z,70.45
2022-08-11T03:01:20.223Z,70.30
2022-08-11T03:04:05.852Z,70.53
2022-08-11T03:06:38.175Z,71.24
2022-08-11T03:09:24.971Z,71.02
2022-08-11T03:12:19.552Z,71.22
2022-08-11T03:15:31.870Z,70.73
2022-08-11T03:18:25.108Z,70.78
2022-08-11T03:21:20.863Z,71.45
2022-08-11T03:24:03.646Z,70.99
2022-08-11T03:26:54.058Z,71.65
2022-08-11T03:29:31.454Z,72.18
2022-08-11T03:32:29.946Z,71.77
2022-08-11T03:35:01.455Z,72.03
2022-08-11T03:37:51.028Z,71.87
2022-08-11T03:40:55.949Z,71.64
2022-08-11T03:43:50.118Z,70.94
2022-08-11T03:46:38.320Z,72.15
2022-08-11T03:49:34.961Z,71.87
2022-08-11T03:52:04.806Z,72.81
2022-08-11T03:54:34.393Z,73.88
2022-08-11T03:57:28.612Z,73.54
2022-08-11T04:00:11.368Z,74.15
2022-08-11T04:03:03.670Z,74.59
2022-08-11T04:06:09.387Z,73.49
2022-08-11T04:08:47.996Z,72.41
2022-08-11T04:11:32.367Z,73.24
2022-08-11T04:14:42.528Z,73.01
2022-08-11T04:17:36.989Z,72.99
2022-08-11T04:20:30.419Z,74.19
2022-08-11T04:24:35.947Z,75.12
2022-08-11T04:26:57.373Z,75.38
2022-08-11T04:30:03.286Z,74.71
2022-08-11T04:33:02.850Z,74.75
2022-08-11T04:35:34.429Z,74.66
2022-08-11T04:38:44.524Z,74.50
2022-08-11T04:42:05.287Z,74.26
2022-08-11T04:45:12.297Z,74.63
2022-08-11T04:48:19.490Z,73.72
2022-08-11T04:51:29.293Z,73.84
2022-08-11T04:54:50.684Z,73.93
2022-08-11T04:57:58.827Z,74.02
2022-08-11T05:00:49.589Z,74.18
2022-08-11T05:03:56.825Z,74.18
2022-08-11T05:06:44.647Z,74.21
2022-08-11T05:09:26.073Z,71.94
2022-08-11T05:12:14.493Z,64.55
2022-08-11T05:15:13.419Z,59.46
2022-08-11T05:18:04.715Z,54.56
2022-08-11T05:21:04.334Z,52.53
2022-08-11T05:23:57.362Z,51.17
2022-08-11T05:26:48.866Z,50.71
2022-08-11T05:30:06.643Z,49.79
2022-08-11T05:33:02.348Z,48.20
2022-08-11T05:36:00.312Z,48.22
2022-08-11T05:38:49.947Z,47.49
2022-08-11T05:41:41.880Z,48.28
2022-08-11T05:44:29.363Z,46.68
2022-08-11T05:47:16.027Z,47.02
2022-08-11T05:50:08.183Z,46.50
2022-08-11T05:52:57.458Z,45.85
2022-08-11T05:55:52.379Z,46.04
2022-08-11T05:58:42.713Z,45.47
2022-08-11T06:01:14.453Z,45.06
2022-08-11T06:04:03.223Z,45.31
2022-08-11T06:06:31.253Z,45.39
2022-08-11T06:09:00.789Z,44.49
2022-08-11T06:11:44.470Z,45.61
2022-08-11T06:14:12.605Z,45.85
2022-08-11T06:16:41.847Z,45.49
2022-08-11T06:19:09.777Z,45.40
2022-08-11T06:21:37.899Z,45.35
2022-08-11T06:24:11.758Z,45.66
2022-08-11T06:26:55.183Z,45.39
2022-08-11T06:29:37.310Z,44.80
2022-08-11T06:32:06.260Z,45.47
2022-08-11T06:34:46.340Z,45.63
2022-08-11T06:37:42.440Z,45.52
2022-08-11T06:40:36.400Z,45.53
2022-08-11T06:43:18.340Z,45.26
2022-08-11T06:46:25.178Z,46.65
2022-08-11T06:48:59.543Z,47.40
2022-08-11T06:51:27.677Z,46.52
2022-08-11T06:54:04.938Z,46.29
2022-08-11T06:57:26.482Z,46.17
2022-08-11T07:00:03.699Z,46.51
2022-08-11T07:03:00.872Z,46.50
2022-08-11T07:05:43.863Z,49.55
2022-08-11T07:09:03.231Z,50.77
2022-08-11T07:12:14.242Z,53.16
2022-08-11T07:15:09.755Z,53.86
2022-08-11T07:17:50.009Z,54.52
2022-08-11T07:20:37.378Z,54.30
2022-08-11T07:23:27.527Z,55.34
2022-08-11T07:26:15.576Z,53.37
2022-08-11T07:28:59.213Z,53.55
2022-08-11T07:31:31.287Z,52.86
2022-08-11T07:34:18.545Z,52.65
2022-08-11T07:36:54.877Z,52.52
2022-08-11T07:39:33.315Z,52.05
2022-08-11T07:42:05.120Z,51.62
2022-08-11T07:44:55.040Z,51.74
2022-08-11T07:47:43.586Z,51.33
2022-08-11T07:50:29.687Z,50.98
2022-08-11T07:52:59.778Z,49.67
2022-08-11T07:55:50.941Z,50.28
2022-08-11T07:58:45.438Z,49.74
2022-08-11T08:01:40.351Z,48.65
2022-08-11T08:04:38.917Z,49.21
2022-08-11T08:07:24.714Z,48.57
2022-08-11T08:10:15.878Z,48.73
2022-08-11T08:13:01.347Z,49.13
2022-08-11T08:15:47.358Z,49.48
2022-08-11T08:18:27.033Z,49.68
2022-08-11T08:20:56.893Z,50.15
2022-08-11T08:23:36.784Z,49.90
2022-08-11T08:26:25.995Z,49.93
2022-08-11T08:28:55.130Z,48.51
2022-08-11T08:31:25.571Z,48.54
2022-08-11T08:33:52.572Z,48.56
2022-08-11T08:36:24.002Z,47.87
2022-08-11T08:38:54.266Z,46.50
2022-08-11T08:41:29.935Z,46.87
2022-08-11T08:44:27.341Z,46.57
2022-08-11T08:46:56.363Z,46.45
2022-08-11T08:49:28.796Z,46.30
2022-08-11T08:52:26.194Z,45.97
2022-08-11T08:54:54.159Z,43.91
2022-08-11T08:57:23.724Z,43.92
2022-08-11T08:59:52.040Z,44.04
2022-08-11T09:02:34.061Z,42.98
2022-08-11T09:05:03.664Z,44.31
2022-08-11T09:07:38.440Z,43.53
2022-08-11T09:10:07.423Z,43.04
2022-08-11T09:12:38.866Z,43.20
2022-08-11T09:15:09.328Z,42.61
2022-08-11T09:17:41.026Z,42.34
2022-08-11T09:20:17.373Z,40.92
2022-08-11T09:24:08.940Z,40.39
2022-08-11T09:26:12.536Z,39.68
2022-08-11T09:28:44.063Z,39.25
2022-08-11T09:31:14.660Z,38.53
2022-08-11T09:33:43.845Z,38.73
2022-08-11T09:36:34.068Z,37.87
2022-08-11T09:39:24.146Z,38.74
2022-08-11T09:42:00.925Z,38.78
2022-08-11T09:44:49.823Z,38.11
2022-08-11T09:47:23.671Z,37.78
2022-08-11T09:50:02.372Z,38.37
2022-08-11T09:52:33.029Z,36.50
2022-08-11T09:55:02.848Z,36.36
2022-08-11T09:57:48.249Z,36.36
2022-08-11T10:00:15.867Z,34.99
2022-08-11T10:02:48.911Z,35.76
2022-08-11T10:05:42.783Z,35.15
2022-08-11T10:08:16.252Z,34.61
2022-08-11T10:10:45.590Z,33.47
2022-08-11T10:14:31.646Z,33.27
2022-08-11T10:16:15.803Z,33.63
2022-08-11T10:18:51.817Z,33.06
2022-08-11T10:21:30.341Z,32.65
2022-08-11T10:24:19.507Z,32.85
2022-08-11T10:26:54.956Z,32.16
2022-08-11T10:29:56.551Z,33.63
2022-08-11T10:32:49.297Z,29.53
2022-08-11T10:35:28.338Z,30.45
2022-08-11T10:38:06.642Z,31.36
2022-08-11T10:41:07.049Z,30.46
2022-08-11T10:44:01.779Z,31.31
2022-08-11T10:46:42.348Z,30.28
2022-08-11T10:49:09.953Z,30.25
2022-08-11T10:51:57.657Z,30.71
2022-08-11T10:54:44.731Z,30.13
2022-08-11T10:57:30.498Z,29.76
2022-08-11T11:00:01.784Z,29.58
2022-08-11T11:02:29.689Z,28.95
2022-08-11T11:05:02.579Z,29.60
2022-08-11T11:08:27.979Z,30.35
2022-08-11T11:10:57.081Z,29.94
2022-08-11T11:13:53.247Z,28.65
2022-08-11T11:16:50.983Z,28.99
2022-08-11T11:19:25.500Z,29.23
2022-08-11T11:22:18.809Z,29.76
2022-08-11T11:25:01.100Z,29.89
2022-08-11T11:27:46.758Z,29.37
2022-08-11T11:30:15.766Z,28.78
2022-08-11T11:33:11.762Z,29.41
2022-08-11T11:35:49.663Z,29.90
2022-08-11T11:38:17.666Z,27.22
2022-08-11T11:41:05.102Z,28.12
2022-08-11T11:43:35.604Z,27.49
2022-08-11T11:46:03.019Z,28.54
2022-08-11T11:48:31.787Z,27.81
2022-08-11T11:51:01.491Z,26.93
2022-08-11T11:53:32.147Z,27.76
2022-08-11T11:56:00.017Z,27.89
2022-08-11T11:58:46.970Z,27.54
2022-08-11T12:01:19.885Z,28.25
2022-08-11T12:03:49.533Z,27.13
2022-08-11T12:06:18.145Z,28.01
2022-08-11T12:08:48.041Z,28.12
2022-08-11T12:11:34.924Z,27.32
2022-08-11T12:14:10.657Z,26.98
2022-08-11T12:16:44.970Z,26.90
2022-08-11T12:19:18.725Z,27.85
2022-08-11T12:22:04.807Z,26.14
2022-08-11T12:24:52.581Z,27.45
2022-08-11T12:27:25.306Z,26.31
2022-08-11T12:29:56.243Z,26.17
2022-08-11T12:32:32.151Z,26.50
2022-08-11T12:34:59.541Z,25.76
2022-08-11T12:37:35.502Z,25.50
2022-08-11T12:40:43.756Z,25.12
2022-08-11T12:43:39.517Z,25.82
2022-08-11T12:46:12.877Z,25.61
2022-08-11T12:49:04.288Z,26.52
2022-08-11T12:52:06.743Z,25.06
2022-08-11T12:54:51.900Z,25.76
2022-08-11T12:57:44.022Z,25.39
2022-08-11T13:00:32.400Z,25.81
2022-08-11T13:03:18.897Z,26.35
2022-08-11T13:05:48.294Z,25.33
2022-08-11T13:08:17.315Z,25.24
2022-08-11T13:11:04.616Z,25.65
2022-08-11T13:13:53.954Z,25.52
2022-08-11T13:16:23.750Z,25.56
2022-08-11T13:18:53.516Z,25.21
2022-08-11T13:21:22.018Z,25.65
2022-08-11T13:23:59.520Z,24.96
2022-08-11T13:26:47.274Z,24.90
2022-08-11T13:29:25.443Z,24.79
2022-08-11T13:31:57.312Z,23.16
2022-08-11T13:34:27.144Z,24.10
2022-08-11T13:36:55.794Z,24.36
2022-08-11T13:39:25.222Z,24.37
2022-08-11T13:42:01.267Z,24.56
2022-08-11T13:44:36.103Z,23.87
2022-08-11T13:47:15.189Z,23.86
2022-08-11T13:49:45.777Z,24.36
2022-08-11T13:52:19.507Z,24.55
2022-08-11T13:54:49.594Z,24.71
2022-08-11T13:58:08.105Z,24.20
2022-08-11T14:00:27.684Z,24.24
2022-08-11T14:03:05.887Z,24.60
2022-08-11T14:05:47.547Z,25.49
2022-08-11T14:08:37.542Z,25.92
2022-08-11T14:12:23.023Z,24.41
2022-08-11T14:14:23.027Z,25.40
2022-08-11T14:16:56.283Z,23.99
2022-08-11T14:19:27.428Z,24.02
2022-08-11T14:22:08.309Z,24.32
2022-08-11T14:24:41.049Z,24.31
2022-08-11T14:27:46.058Z,24.75
2022-08-11T14:30:04.901Z,23.96
2022-08-11T14:32:35.127Z,24.06
2022-08-11T14:35:21.786Z,23.47
2022-08-11T14:37:49.446Z,24.63
2022-08-11T14:40:37.540Z,23.72
2022-08-11T14:44:12.248Z,24.23
2022-08-11T14:49:00.276Z,23.29
2022-08-11T14:51:31.272Z,24.29
2022-08-11T14:54:19.109Z,23.95
2022-08-11T14:56:46.047Z,23.86
2022-08-11T14:59:13.445Z,24.12
2022-08-11T15:01:59.261Z,23.71
2022-08-11T15:04:34.835Z,23.75
2022-08-11T15:07:03.835Z,23.80
2022-08-11T15:09:30.946Z,23.98
2022-08-11T15:12:32.494Z,24.11
2022-08-11T15:15:19.955Z,24.29
2022-08-11T15:17:49.410Z,24.28
2022-08-11T15:20:36.459Z,24.13
2022-08-11T15:23:23.031Z,23.71
2022-08-11T15:25:59.512Z,23.86
2022-08-11T15:28:48.218Z,22.95
2022-08-11T15:31:40.846Z,23.16
2022-08-11T15:34:36.568Z,23.45
2022-08-11T15:37:29.553Z,23.79
2022-08-11T15:40:35.741Z,24.10
2022-08-11T15:43:29.383Z,23.92
2022-08-11T15:46:02.415Z,23.92
2022-08-11T15:48:36.254Z,23.78
2022-08-11T15:51:16.717Z,24.63
2022-08-11T15:53:56.550Z,25.05
2022-08-11T15:56:28.424Z,25.08
2022-08-11T15:59:41.917Z,24.34
2022-08-11T16:02:11.406Z,24.25
2022-08-11T16:04:45.735Z,24.28
2022-08-11T16:07:15.832Z,24.72
2022-08-11T16:09:47.676Z,24.47
2022-08-11T16:12:30.382Z,24.90
2022-08-11T16:15:25.731Z,24.64
2022-08-11T16:17:57.556Z,24.43
2022-08-11T16:21:00.486Z,25.24
2022-08-11T16:23:29.320Z,25.25
2022-08-11T16:27:02.158Z,26.18
2022-08-11T16:28:44.600Z,25.41
2022-08-11T16:31:12.800Z,26.03
2022-08-11T16:33:49.848Z,25.95
2022-08-11T16:36:43.878Z,26.83
2022-08-11T16:39:20.134Z,26.15
2022-08-11T16:43:06.101Z,25.93
2022-08-11T16:45:35.050Z,26.36
2022-08-11T16:48:36.244Z,26.62
2022-08-11T16:50:50.952Z,26.95
2022-08-11T16:53:17.977Z,26.76
2022-08-11T16:55:52.586Z,26.88
2022-08-11T16:58:40.410Z,26.72
2022-08-11T17:01:09.239Z,27.36
2022-08-11T17:07:23.588Z,26.56
2022-08-11T17:10:31.680Z,27.45
2022-08-11T17:13:09.759Z,27.46
2022-08-11T17:16:10.305Z,27.91
2022-08-11T17:19:12.792Z,27.43
2022-08-11T17:22:02.899Z,27.72
2022-08-11T17:24:31.564Z,27.67
2022-08-11T17:27:00.118Z,27.46
2022-08-11T17:29:34.379Z,27.89
2022-08-11T17:33:00.523Z,27.84
2022-08-11T17:35:32.906Z,28.29
2022-08-11T17:38:13.118Z,27.83
2022-08-11T17:41:03.576Z,27.43
2022-08-11T17:43:49.834Z,27.46
2022-08-11T17:46:35.793Z,28.07
2022-08-11T17:49:04.883Z,27.70
2022-08-11T17:51:50.363Z,27.80
2022-08-11T17:54:36.559Z,28.20
2022-08-11T17:57:22.927Z,28.91
2022-08-11T17:59:52.879Z,28.38
2022-08-11T18:02:41.169Z,28.23
2022-08-11T18:05:13.010Z,28.68
2022-08-11T18:08:02.499Z,28.84
2022-08-11T18:10:50.419Z,29.21
2022-08-11T18:13:41.912Z,29.31
2022-08-11T18:16:27.902Z,29.33
2022-08-11T18:19:13.537Z,29.61
2022-08-11T18:22:14.959Z,29.68
2022-08-11T18:25:11.258Z,30.18
2022-08-11T18:28:01.369Z,30.16
2022-08-11T18:30:50.594Z,30.59
2022-08-11T18:34:05.880Z,31.07
2022-08-11T18:36:56.738Z,31.00
2022-08-11T18:39:46.173Z,31.59
2022-08-11T18:42:44.048Z,30.72
2022-08-11T18:45:35.798Z,32.14
2022-08-11T18:48:37.478Z,32.29
2022-08-11T18:51:30.824Z,32.05
2022-08-11T18:54:23.112Z,32.20
2022-08-11T18:57:08.444Z,32.33
2022-08-11T18:59:57.596Z,32.45
2022-08-11T19:02:49.598Z,32.47
2022-08-11T19:06:36.108Z,32.96
2022-08-11T19:08:48.979Z,32.83
2022-08-11T19:11:42.826Z,33.28
2022-08-11T19:14:36.903Z,33.36
2022-08-11T19:17:43.285Z,33.44
2022-08-11T19:20:38.222Z,33.83
2022-08-11T19:23:26.280Z,33.76
2022-08-11T19:26:12.464Z,34.27
2022-08-11T19:29:00.340Z,34.15
2022-08-11T19:31:49.096Z,34.33
2022-08-11T19:34:42.292Z,33.85
2022-08-11T19:37:29.445Z,34.63
2022-08-11T19:40:25.001Z,35.21
2022-08-11T19:43:23.398Z,35.38
2022-08-11T19:46:17.202Z,35.27
2022-08-11T19:49:04.953Z,35.38
2022-08-11T19:51:55.507Z,35.69
2022-08-11T19:54:50.336Z,35.82
2022-08-11T19:57:40.118Z,35.72
2022-08-11T20:00:31.413Z,35.92
2022-08-11T20:03:25.571Z,35.99
2022-08-11T20:06:13.236Z,35.89
2022-08-11T20:09:01.086Z,36.21
2022-08-11T20:11:51.378Z,36.50
2022-08-11T20:14:40.026Z,36.30
2022-08-11T20:17:31.731Z,36.65
2022-08-11T20:20:22.689Z,37.02
2022-08-11T20:23:13.033Z,36.98
2022-08-11T20:26:13.946Z,37.74
2022-08-11T20:29:02.393Z,37.94
2022-08-11T20:31:48.619Z,37.73
2022-08-11T20:34:35.640Z,37.72
2022-08-11T20:37:23.295Z,38.29
2022-08-11T20:40:10.047Z,38.42
2022-08-11T20:42:56.410Z,38.80
2022-08-11T20:45:53.502Z,39.49
2022-08-11T20:48:47.368Z,39.47
2022-08-11T20:51:38.774Z,39.99
2022-08-11T20:54:43.077Z,40.11
2022-08-11T20:57:58.980Z,40.80
2022-08-11T21:00:48.020Z,41.13
2022-08-11T21:03:36.455Z,41.04
2022-08-11T21:06:34.613Z,41.84
2022-08-11T21:09:58.106Z,41.74
2022-08-11T21:12:31.605Z,41.92
2022-08-11T21:15:38.945Z,42.38
2022-08-11T21:18:27.549Z,42.92
2022-08-11T21:21:18.420Z,43.58
2022-08-11T21:24:06.652Z,43.83
2022-08-11T21:27:01.537Z,44.91
2022-08-11T21:29:51.297Z,44.83
2022-08-11T21:32:39.919Z,45.42
2022-08-11T21:35:27.742Z,45.68
2022-08-11T21:38:14.912Z,46.41
2022-08-11T21:41:01.583Z,46.76
2022-08-11T21:43:49.915Z,46.57
2022-08-11T21:49:39.092Z,47.31
2022-08-11T21:52:24.986Z,47.40
2022-08-11T21:55:11.221Z,47.82
2022-08-11T21:57:58.737Z,48.39
2022-08-11T22:00:49.824Z,47.54
2022-08-11T22:03:41.150Z,48.83
2022-08-11T22:06:36.769Z,48.56
2022-08-11T22:09:25.740Z,49.05
2022-08-11T22:12:34.017Z,49.22
2022-08-11T22:15:23.318Z,49.53
2022-08-11T22:18:09.471Z,49.64
2022-08-11T22:20:56.220Z,50.23
2022-08-11T22:23:42.260Z,49.69
2022-08-11T22:26:28.107Z,50.13
2022-08-11T22:29:18.609Z,50.99
2022-08-11T22:32:27.203Z,50.65
2022-08-11T22:35:15.571Z,50.32
2022-08-11T22:38:05.742Z,50.66
2022-08-11T22:40:52.366Z,50.89
2022-08-11T22:43:43.435Z,51.02
2022-08-11T22:46:29.683Z,51.54
2022-08-11T22:49:17.492Z,51.17
2022-08-11T22:52:03.852Z,51.85
2022-08-11T22:54:50.738Z,52.04
2022-08-11T22:57:37.127Z,51.78
2022-08-11T23:00:24.878Z,51.86
2022-08-11T23:03:37.266Z,52.01
2022-08-11T23:06:28.170Z,52.14
2022-08-11T23:09:15.360Z,52.92
2022-08-11T23:12:06.846Z,52.78
2022-08-11T23:14:53.908Z,52.44
2022-08-11T23:17:39.031Z,52.58
2022-08-11T23:20:30.263Z,52.53
2022-08-11T23:23:32.669Z,53.24
2022-08-11T23:26:19.629Z,53.11
2022-08-11T23:29:04.939Z,53.02
2022-08-11T23:31:53.647Z,53.78
2022-08-11T23:35:04.324Z,53.28
2022-08-11T23:38:00.252Z,53.83
2022-08-11T23:40:46.692Z,54.18
2022-08-11T23:43:42.607Z,53.68
2022-08-11T23:46:28.790Z,55.18
2022-08-11T23:49:25.650Z,54.91
2022-08-11T23:52:15.674Z,55.11
2022-08-11T23:55:12.741Z,55.17
2022-08-11T23:57:58.225Z,55.17
